sensor_id;sensor_type;location;lat;lon;timestamp;P1;durP1;ratioP1;P2;durP2;ratioP2
10260;SDS011;5175;42.606;23.388;2022-12-18T00:00:04;6.80;;;6.10;;
10260;SDS011;5175;42.606;23.388;2022-12-18T00:02:32;7.03;;;6.10;;
10260;SDS011;5175;42.606;23.388;2022-12-18T00:05:00;5.33;;;4.83;;
10260;SDS011;5175;42.606;23.388;2022-12-18T00:07:27;6.40;;;5.80;;
10260;SDS011;5175;42.606;23.388;2022-12-18T00:09:53;6.13;;;5.50;;
10260;SDS011;5175;42.606;23.388;2022-12-18T00:12:20;6.03;;;5.53;;
10260;SDS011;5175;42.606;23.388;2022-12-18T00:14:47;6.20;;;5.60;;
10260;SDS011;5175;42.606;23.388;2022-12-18T00:17:13;5.77;;;5.13;;
10260;SDS011;5175;42.606;23.388;2022-12-18T00:19:40;5.60;;;5.10;;
10260;SDS011;5175;42.606;23.388;2022-12-18T00:22:08;5.67;;;5.07;;
10260;SDS011;5175;42.606;23.388;2022-12-18T00:24:35;6.77;;;5.50;;
10260;SDS011;5175;42.606;23.388;2022-12-18T00:27:02;6.13;;;5.53;;
10260;SDS011;5175;42.606;23.388;2022-12-18T00:29:28;5.80;;;5.20;;
10260;SDS011;5175;42.606;23.388;2022-12-18T00:31:55;5.90;;;5.37;;
10260;SDS011;5175;42.606;23.388;2022-12-18T00:34:22;6.40;;;5.80;;
10260;SDS011;5175;42.606;23.388;2022-12-18T00:36:48;5.80;;;5.20;;
10260;SDS011;5175;42.606;23.388;2022-12-18T00:39:16;4.27;;;3.87;;
10260;SDS011;5175;42.606;23.388;2022-12-18T00:41:43;6.13;;;5.53;;
10260;SDS011;5175;42.606;23.388;2022-12-18T00:44:27;6.80;;;5.80;;
10260;SDS011;5175;42.606;23.388;2022-12-18T00:46:54;6.90;;;6.20;;
10260;SDS011;5175;42.606;23.388;2022-12-18T00:49:21;7.13;;;6.33;;
10260;SDS011;5175;42.606;23.388;2022-12-18T00:51:48;7.43;;;6.30;;
10260;SDS011;5175;42.606;23.388;2022-12-18T00:54:17;6.90;;;6.20;;
10260;SDS011;5175;42.606;23.388;2022-12-18T00:56:44;7.00;;;6.30;;
10260;SDS011;5175;42.606;23.388;2022-12-18T00:59:10;6.83;;;6.13;;
10260;SDS011;5175;42.606;23.388;2022-12-18T01:01:37;7.73;;;6.63;;
10260;SDS011;5175;42.606;23.388;2022-12-18T01:04:04;6.87;;;6.20;;
10260;SDS011;5175;42.606;23.388;2022-12-18T01:06:31;6.63;;;5.93;;
10260;SDS011;5175;42.606;23.388;2022-12-18T01:08:57;7.10;;;6.27;;
10260;SDS011;5175;42.606;23.388;2022-12-18T01:11:25;7.20;;;6.50;;
10260;SDS011;5175;42.606;23.388;2022-12-18T01:13:52;7.50;;;6.70;;
10260;SDS011;5175;42.606;23.388;2022-12-18T01:16:20;7.27;;;6.20;;
10260;SDS011;5175;42.606;23.388;2022-12-18T01:18:50;6.87;;;6.10;;
10260;SDS011;5175;42.606;23.388;2022-12-18T01:21:18;8.10;;;6.30;;
10260;SDS011;5175;42.606;23.388;2022-12-18T01:23:45;6.70;;;6.00;;
10260;SDS011;5175;42.606;23.388;2022-12-18T01:26:12;6.47;;;5.87;;
10260;SDS011;5175;42.606;23.388;2022-12-18T01:28:42;5.90;;;5.30;;
10260;SDS011;5175;42.606;23.388;2022-12-18T01:31:13;7.80;;;6.03;;
10260;SDS011;5175;42.606;23.388;2022-12-18T01:33:43;6.50;;;5.83;;
10260;SDS011;5175;42.606;23.388;2022-12-18T01:36:20;7.20;;;6.50;;
10260;SDS011;5175;42.606;23.388;2022-12-18T01:38:48;6.87;;;6.07;;
10260;SDS011;5175;42.606;23.388;2022-12-18T01:41:16;8.00;;;6.93;;
10260;SDS011;5175;42.606;23.388;2022-12-18T01:43:48;9.13;;;7.43;;
10260;SDS011;5175;42.606;23.388;2022-12-18T01:46:18;8.70;;;7.80;;
10260;SDS011;5175;42.606;23.388;2022-12-18T01:48:47;8.30;;;7.43;;
10260;SDS011;5175;42.606;23.388;2022-12-18T01:51:15;9.10;;;8.10;;
10260;SDS011;5175;42.606;23.388;2022-12-18T01:53:43;8.50;;;7.53;;
10260;SDS011;5175;42.606;23.388;2022-12-18T01:56:14;8.77;;;7.87;;
10260;SDS011;5175;42.606;23.388;2022-12-18T01:58:46;8.27;;;7.47;;
10260;SDS011;5175;42.606;23.388;2022-12-18T02:01:19;8.47;;;7.60;;
10260;SDS011;5175;42.606;23.388;2022-12-18T02:03:46;10.90;;;8.17;;
10260;SDS011;5175;42.606;23.388;2022-12-18T02:06:13;9.47;;;8.47;;
10260;SDS011;5175;42.606;23.388;2022-12-18T02:08:45;9.47;;;8.10;;
10260;SDS011;5175;42.606;23.388;2022-12-18T02:11:21;8.83;;;7.90;;
10260;SDS011;5175;42.606;23.388;2022-12-18T02:14:00;9.87;;;8.87;;
10260;SDS011;5175;42.606;23.388;2022-12-18T02:16:37;12.63;;;8.80;;
10260;SDS011;5175;42.606;23.388;2022-12-18T02:19:14;8.70;;;7.60;;
10260;SDS011;5175;42.606;23.388;2022-12-18T02:21:49;10.27;;;8.30;;
10260;SDS011;5175;42.606;23.388;2022-12-18T02:24:26;10.37;;;9.03;;
10260;SDS011;5175;42.606;23.388;2022-12-18T02:27:02;9.90;;;8.73;;
10260;SDS011;5175;42.606;23.388;2022-12-18T02:29:33;10.60;;;8.80;;
10260;SDS011;5175;42.606;23.388;2022-12-18T02:32:05;11.50;;;9.27;;
10260;SDS011;5175;42.606;23.388;2022-12-18T02:34:36;9.73;;;8.73;;
10260;SDS011;5175;42.606;23.388;2022-12-18T02:37:06;10.40;;;8.83;;
10260;SDS011;5175;42.606;23.388;2022-12-18T02:39:37;10.57;;;9.00;;
10260;SDS011;5175;42.606;23.388;2022-12-18T02:42:07;10.97;;;9.33;;
10260;SDS011;5175;42.606;23.388;2022-12-18T02:44:35;10.03;;;8.60;;
10260;SDS011;5175;42.606;23.388;2022-12-18T02:47:08;9.87;;;8.60;;
10260;SDS011;5175;42.606;23.388;2022-12-18T02:49:40;9.57;;;8.53;;
10260;SDS011;5175;42.606;23.388;2022-12-18T02:52:17;9.53;;;8.53;;
10260;SDS011;5175;42.606;23.388;2022-12-18T02:54:56;9.87;;;8.57;;
10260;SDS011;5175;42.606;23.388;2022-12-18T02:57:30;9.77;;;8.40;;
10260;SDS011;5175;42.606;23.388;2022-12-18T03:00:03;9.63;;;8.50;;
10260;SDS011;5175;42.606;23.388;2022-12-18T03:02:34;9.57;;;8.40;;
10260;SDS011;5175;42.606;23.388;2022-12-18T03:05:07;9.87;;;8.40;;
10260;SDS011;5175;42.606;23.388;2022-12-18T03:07:39;10.13;;;8.10;;
10260;SDS011;5175;42.606;23.388;2022-12-18T03:10:12;9.70;;;8.17;;
10260;SDS011;5175;42.606;23.388;2022-12-18T03:12:45;8.77;;;7.87;;
10260;SDS011;5175;42.606;23.388;2022-12-18T03:15:18;9.63;;;8.27;;
10260;SDS011;5175;42.606;23.388;2022-12-18T03:17:50;9.13;;;8.13;;
10260;SDS011;5175;42.606;23.388;2022-12-18T03:20:22;8.83;;;7.50;;
10260;SDS011;5175;42.606;23.388;2022-12-18T03:22:54;9.27;;;7.97;;
10260;SDS011;5175;42.606;23.388;2022-12-18T03:25:29;8.83;;;7.93;;
10260;SDS011;5175;42.606;23.388;2022-12-18T03:28:00;9.37;;;8.37;;
10260;SDS011;5175;42.606;23.388;2022-12-18T03:30:29;12.50;;;8.40;;
10260;SDS011;5175;42.606;23.388;2022-12-18T03:33:01;7.90;;;7.10;;
10260;SDS011;5175;42.606;23.388;2022-12-18T03:35:33;9.83;;;8.10;;
10260;SDS011;5175;42.606;23.388;2022-12-18T03:38:03;9.63;;;8.40;;
10260;SDS011;5175;42.606;23.388;2022-12-18T03:40:31;9.40;;;7.90;;
10260;SDS011;5175;42.606;23.388;2022-12-18T03:43:07;10.43;;;7.80;;
10260;SDS011;5175;42.606;23.388;2022-12-18T03:45:37;8.93;;;7.63;;
10260;SDS011;5175;42.606;23.388;2022-12-18T03:48:09;8.93;;;7.90;;
10260;SDS011;5175;42.606;23.388;2022-12-18T03:50:44;8.83;;;7.57;;
10260;SDS011;5175;42.606;23.388;2022-12-18T03:53:17;8.70;;;7.80;;
10260;SDS011;5175;42.606;23.388;2022-12-18T03:55:51;7.77;;;7.07;;
10260;SDS011;5175;42.606;23.388;2022-12-18T03:58:20;8.40;;;7.00;;
10260;SDS011;5175;42.606;23.388;2022-12-18T04:00:50;7.53;;;6.73;;
10260;SDS011;5175;42.606;23.388;2022-12-18T04:03:21;6.30;;;5.70;;
10260;SDS011;5175;42.606;23.388;2022-12-18T04:05:50;8.40;;;6.70;;
10260;SDS011;5175;42.606;23.388;2022-12-18T04:08:19;6.67;;;5.73;;
10260;SDS011;5175;42.606;23.388;2022-12-18T04:10:47;6.87;;;5.83;;
10260;SDS011;5175;42.606;23.388;2022-12-18T04:13:22;8.63;;;6.37;;
10260;SDS011;5175;42.606;23.388;2022-12-18T04:15:50;7.30;;;6.33;;
10260;SDS011;5175;42.606;23.388;2022-12-18T04:18:17;7.23;;;6.13;;
10260;SDS011;5175;42.606;23.388;2022-12-18T04:20:44;7.03;;;5.80;;
10260;SDS011;5175;42.606;23.388;2022-12-18T04:23:10;6.93;;;5.40;;
10260;SDS011;5175;42.606;23.388;2022-12-18T04:25:37;6.70;;;6.00;;
10260;SDS011;5175;42.606;23.388;2022-12-18T04:28:04;7.63;;;6.00;;
10260;SDS011;5175;42.606;23.388;2022-12-18T04:30:32;7.93;;;6.37;;
10260;SDS011;5175;42.606;23.388;2022-12-18T04:32:59;7.87;;;6.27;;
10260;SDS011;5175;42.606;23.388;2022-12-18T04:35:26;10.10;;;7.13;;
10260;SDS011;5175;42.606;23.388;2022-12-18T04:37:53;8.17;;;6.57;;
10260;SDS011;5175;42.606;23.388;2022-12-18T04:40:19;6.93;;;6.03;;
10260;SDS011;5175;42.606;23.388;2022-12-18T04:42:46;7.37;;;5.73;;
10260;SDS011;5175;42.606;23.388;2022-12-18T04:45:13;8.10;;;6.23;;
10260;SDS011;5175;42.606;23.388;2022-12-18T04:47:41;6.40;;;5.57;;
10260;SDS011;5175;42.606;23.388;2022-12-18T04:50:08;6.87;;;5.70;;
10260;SDS011;5175;42.606;23.388;2022-12-18T04:52:34;7.13;;;5.87;;
10260;SDS011;5175;42.606;23.388;2022-12-18T04:55:01;8.10;;;5.80;;
10260;SDS011;5175;42.606;23.388;2022-12-18T04:57:28;6.87;;;5.83;;
10260;SDS011;5175;42.606;23.388;2022-12-18T04:59:55;7.73;;;6.27;;
10260;SDS011;5175;42.606;23.388;2022-12-18T05:02:21;7.30;;;5.80;;
10260;SDS011;5175;42.606;23.388;2022-12-18T05:04:49;8.50;;;6.47;;
10260;SDS011;5175;42.606;23.388;2022-12-18T05:07:16;8.93;;;6.83;;
10260;SDS011;5175;42.606;23.388;2022-12-18T05:09:43;7.90;;;7.10;;
10260;SDS011;5175;42.606;23.388;2022-12-18T05:12:10;8.17;;;6.83;;
10260;SDS011;5175;42.606;23.388;2022-12-18T05:14:37;7.30;;;5.77;;
10260;SDS011;5175;42.606;23.388;2022-12-18T05:17:03;8.27;;;6.87;;
10260;SDS011;5175;42.606;23.388;2022-12-18T05:19:30;10.40;;;8.20;;
10260;SDS011;5175;42.606;23.388;2022-12-18T05:21:58;10.83;;;8.27;;
10260;SDS011;5175;42.606;23.388;2022-12-18T05:24:26;9.93;;;7.63;;
10260;SDS011;5175;42.606;23.388;2022-12-18T05:26:53;8.67;;;6.87;;
10260;SDS011;5175;42.606;23.388;2022-12-18T05:29:19;8.13;;;6.90;;
10260;SDS011;5175;42.606;23.388;2022-12-18T05:31:46;7.27;;;6.10;;
10260;SDS011;5175;42.606;23.388;2022-12-18T05:34:13;7.80;;;6.23;;
10260;SDS011;5175;42.606;23.388;2022-12-18T05:36:40;8.17;;;6.87;;
10260;SDS011;5175;42.606;23.388;2022-12-18T05:39:08;9.83;;;8.10;;
10260;SDS011;5175;42.606;23.388;2022-12-18T05:41:34;9.00;;;7.13;;
10260;SDS011;5175;42.606;23.388;2022-12-18T05:44:01;11.57;;;7.90;;
10260;SDS011;5175;42.606;23.388;2022-12-18T05:46:28;9.87;;;7.07;;
10260;SDS011;5175;42.606;23.388;2022-12-18T05:48:58;12.37;;;8.53;;
10260;SDS011;5175;42.606;23.388;2022-12-18T05:51:25;10.60;;;8.57;;
10260;SDS011;5175;42.606;23.388;2022-12-18T05:53:52;9.30;;;7.63;;
10260;SDS011;5175;42.606;23.388;2022-12-18T05:56:21;11.10;;;8.20;;
10260;SDS011;5175;42.606;23.388;2022-12-18T05:58:51;9.77;;;8.10;;
10260;SDS011;5175;42.606;23.388;2022-12-18T06:01:20;11.03;;;8.50;;
10260;SDS011;5175;42.606;23.388;2022-12-18T06:03:48;10.70;;;8.60;;
10260;SDS011;5175;42.606;23.388;2022-12-18T06:06:15;9.63;;;8.10;;
10260;SDS011;5175;42.606;23.388;2022-12-18T06:08:42;13.07;;;9.17;;
10260;SDS011;5175;42.606;23.388;2022-12-18T06:11:09;10.60;;;8.00;;
10260;SDS011;5175;42.606;23.388;2022-12-18T06:13:37;10.50;;;9.00;;
10260;SDS011;5175;42.606;23.388;2022-12-18T06:16:04;10.37;;;7.97;;
10260;SDS011;5175;42.606;23.388;2022-12-18T06:18:32;12.60;;;10.17;;
10260;SDS011;5175;42.606;23.388;2022-12-18T06:20:59;13.17;;;9.93;;
10260;SDS011;5175;42.606;23.388;2022-12-18T06:23:27;12.17;;;9.10;;
10260;SDS011;5175;42.606;23.388;2022-12-18T06:25:54;11.60;;;9.50;;
10260;SDS011;5175;42.606;23.388;2022-12-18T06:28:21;12.27;;;10.03;;
10260;SDS011;5175;42.606;23.388;2022-12-18T06:30:49;11.57;;;10.07;;
10260;SDS011;5175;42.606;23.388;2022-12-18T06:33:16;11.37;;;9.67;;
10260;SDS011;5175;42.606;23.388;2022-12-18T06:35:43;12.17;;;9.77;;
10260;SDS011;5175;42.606;23.388;2022-12-18T06:38:10;12.40;;;9.43;;
10260;SDS011;5175;42.606;23.388;2022-12-18T06:40:36;18.93;;;13.63;;
10260;SDS011;5175;42.606;23.388;2022-12-18T06:43:04;12.27;;;10.23;;
10260;SDS011;5175;42.606;23.388;2022-12-18T06:45:30;9.37;;;8.30;;
10260;SDS011;5175;42.606;23.388;2022-12-18T06:47:58;11.77;;;8.90;;
10260;SDS011;5175;42.606;23.388;2022-12-18T06:50:25;11.40;;;8.77;;
10260;SDS011;5175;42.606;23.388;2022-12-18T06:52:52;11.27;;;8.50;;
10260;SDS011;5175;42.606;23.388;2022-12-18T06:55:19;10.70;;;8.53;;
10260;SDS011;5175;42.606;23.388;2022-12-18T06:57:46;13.67;;;8.67;;
10260;SDS011;5175;42.606;23.388;2022-12-18T07:00:13;11.83;;;9.03;;
10260;SDS011;5175;42.606;23.388;2022-12-18T07:02:40;11.13;;;8.33;;
10260;SDS011;5175;42.606;23.388;2022-12-18T07:05:08;10.80;;;8.60;;
10260;SDS011;5175;42.606;23.388;2022-12-18T07:07:35;10.77;;;8.50;;
10260;SDS011;5175;42.606;23.388;2022-12-18T07:10:02;10.80;;;8.77;;
10260;SDS011;5175;42.606;23.388;2022-12-18T07:12:29;10.83;;;8.63;;
10260;SDS011;5175;42.606;23.388;2022-12-18T07:14:56;10.17;;;8.33;;
10260;SDS011;5175;42.606;23.388;2022-12-18T07:17:23;11.50;;;8.70;;
10260;SDS011;5175;42.606;23.388;2022-12-18T07:19:50;9.87;;;6.93;;
10260;SDS011;5175;42.606;23.388;2022-12-18T07:22:18;9.37;;;7.70;;
10260;SDS011;5175;42.606;23.388;2022-12-18T07:24:45;11.10;;;8.10;;
10260;SDS011;5175;42.606;23.388;2022-12-18T07:27:12;12.63;;;9.03;;
10260;SDS011;5175;42.606;23.388;2022-12-18T07:29:39;10.10;;;8.57;;
10260;SDS011;5175;42.606;23.388;2022-12-18T07:32:05;10.90;;;8.80;;
10260;SDS011;5175;42.606;23.388;2022-12-18T07:34:33;11.90;;;9.00;;
10260;SDS011;5175;42.606;23.388;2022-12-18T07:37:00;11.40;;;8.67;;
10260;SDS011;5175;42.606;23.388;2022-12-18T07:39:28;10.20;;;8.63;;
10260;SDS011;5175;42.606;23.388;2022-12-18T07:41:56;10.47;;;8.40;;
10260;SDS011;5175;42.606;23.388;2022-12-18T07:44:40;10.77;;;8.67;;
10260;SDS011;5175;42.606;23.388;2022-12-18T07:47:07;12.60;;;9.70;;
10260;SDS011;5175;42.606;23.388;2022-12-18T07:49:33;12.30;;;9.37;;
10260;SDS011;5175;42.606;23.388;2022-12-18T07:52:00;11.90;;;9.70;;
10260;SDS011;5175;42.606;23.388;2022-12-18T07:54:29;13.30;;;10.33;;
10260;SDS011;5175;42.606;23.388;2022-12-18T07:56:55;16.27;;;10.03;;
10260;SDS011;5175;42.606;23.388;2022-12-18T07:59:22;12.17;;;10.07;;
10260;SDS011;5175;42.606;23.388;2022-12-18T08:01:49;11.70;;;9.83;;
10260;SDS011;5175;42.606;23.388;2022-12-18T08:04:15;15.67;;;11.83;;
10260;SDS011;5175;42.606;23.388;2022-12-18T08:06:42;11.70;;;9.73;;
10260;SDS011;5175;42.606;23.388;2022-12-18T08:09:09;20.30;;;13.00;;
10260;SDS011;5175;42.606;23.388;2022-12-18T08:11:37;14.40;;;10.00;;
10260;SDS011;5175;42.606;23.388;2022-12-18T08:14:04;13.80;;;10.30;;
10260;SDS011;5175;42.606;23.388;2022-12-18T08:16:32;17.23;;;11.43;;
10260;SDS011;5175;42.606;23.388;2022-12-18T08:18:58;43.03;;;19.80;;
10260;SDS011;5175;42.606;23.388;2022-12-18T08:21:26;15.27;;;12.03;;
10260;SDS011;5175;42.606;23.388;2022-12-18T08:23:56;16.77;;;12.13;;
10260;SDS011;5175;42.606;23.388;2022-12-18T08:26:24;28.87;;;16.83;;
10260;SDS011;5175;42.606;23.388;2022-12-18T08:28:55;22.53;;;13.33;;
10260;SDS011;5175;42.606;23.388;2022-12-18T08:31:23;13.90;;;10.20;;
10260;SDS011;5175;42.606;23.388;2022-12-18T08:33:50;14.60;;;11.20;;
10260;SDS011;5175;42.606;23.388;2022-12-18T08:36:18;14.00;;;11.77;;
10260;SDS011;5175;42.606;23.388;2022-12-18T08:38:45;15.40;;;11.13;;
10260;SDS011;5175;42.606;23.388;2022-12-18T08:41:12;14.80;;;10.83;;
10260;SDS011;5175;42.606;23.388;2022-12-18T08:43:40;14.87;;;11.80;;
10260;SDS011;5175;42.606;23.388;2022-12-18T08:46:26;14.30;;;11.10;;
10260;SDS011;5175;42.606;23.388;2022-12-18T08:48:57;15.73;;;12.00;;
10260;SDS011;5175;42.606;23.388;2022-12-18T08:51:26;13.33;;;9.77;;
10260;SDS011;5175;42.606;23.388;2022-12-18T08:53:53;14.83;;;11.70;;
10260;SDS011;5175;42.606;23.388;2022-12-18T08:56:20;16.13;;;12.27;;
10260;SDS011;5175;42.606;23.388;2022-12-18T08:58:46;19.03;;;13.30;;
10260;SDS011;5175;42.606;23.388;2022-12-18T09:01:13;12.97;;;10.93;;
10260;SDS011;5175;42.606;23.388;2022-12-18T09:03:42;18.03;;;12.97;;
10260;SDS011;5175;42.606;23.388;2022-12-18T09:06:08;17.50;;;12.53;;
10260;SDS011;5175;42.606;23.388;2022-12-18T09:08:35;20.57;;;13.60;;
10260;SDS011;5175;42.606;23.388;2022-12-18T09:11:02;18.10;;;12.70;;
10260;SDS011;5175;42.606;23.388;2022-12-18T09:13:29;16.30;;;12.23;;
10260;SDS011;5175;42.606;23.388;2022-12-18T09:15:56;17.03;;;13.00;;
10260;SDS011;5175;42.606;23.388;2022-12-18T09:18:23;15.53;;;12.53;;
10260;SDS011;5175;42.606;23.388;2022-12-18T09:20:54;18.33;;;13.50;;
10260;SDS011;5175;42.606;23.388;2022-12-18T09:23:21;18.27;;;13.60;;
10260;SDS011;5175;42.606;23.388;2022-12-18T09:25:48;18.33;;;13.87;;
10260;SDS011;5175;42.606;23.388;2022-12-18T09:28:15;20.47;;;14.30;;
10260;SDS011;5175;42.606;23.388;2022-12-18T09:30:45;21.37;;;14.57;;
10260;SDS011;5175;42.606;23.388;2022-12-18T09:33:13;18.07;;;14.20;;
10260;SDS011;5175;42.606;23.388;2022-12-18T09:35:41;19.53;;;15.10;;
10260;SDS011;5175;42.606;23.388;2022-12-18T09:38:11;21.33;;;15.67;;
10260;SDS011;5175;42.606;23.388;2022-12-18T09:40:42;21.50;;;15.83;;
10260;SDS011;5175;42.606;23.388;2022-12-18T09:43:13;20.87;;;15.40;;
10260;SDS011;5175;42.606;23.388;2022-12-18T09:45:44;18.80;;;13.07;;
10260;SDS011;5175;42.606;23.388;2022-12-18T09:48:15;23.50;;;15.23;;
10260;SDS011;5175;42.606;23.388;2022-12-18T09:50:47;20.50;;;14.30;;
10260;SDS011;5175;42.606;23.388;2022-12-18T09:53:19;21.80;;;16.53;;
10260;SDS011;5175;42.606;23.388;2022-12-18T09:55:49;23.70;;;16.63;;
10260;SDS011;5175;42.606;23.388;2022-12-18T09:58:20;21.70;;;16.43;;
10260;SDS011;5175;42.606;23.388;2022-12-18T10:00:55;21.97;;;16.60;;
10260;SDS011;5175;42.606;23.388;2022-12-18T10:03:22;22.77;;;16.43;;
10260;SDS011;5175;42.606;23.388;2022-12-18T10:05:52;21.10;;;16.57;;
10260;SDS011;5175;42.606;23.388;2022-12-18T10:08:28;21.97;;;16.93;;
10260;SDS011;5175;42.606;23.388;2022-12-18T10:11:09;21.43;;;15.70;;
10260;SDS011;5175;42.606;23.388;2022-12-18T10:13:54;18.70;;;13.57;;
10260;SDS011;5175;42.606;23.388;2022-12-18T10:16:27;20.90;;;15.70;;
10260;SDS011;5175;42.606;23.388;2022-12-18T10:19:04;20.23;;;15.23;;
10260;SDS011;5175;42.606;23.388;2022-12-18T10:21:45;19.13;;;14.23;;
10260;SDS011;5175;42.606;23.388;2022-12-18T10:24:20;19.10;;;12.47;;
10260;SDS011;5175;42.606;23.388;2022-12-18T10:26:55;16.40;;;12.53;;
10260;SDS011;5175;42.606;23.388;2022-12-18T10:29:30;18.37;;;13.40;;
10260;SDS011;5175;42.606;23.388;2022-12-18T10:31:57;15.97;;;12.00;;
10260;SDS011;5175;42.606;23.388;2022-12-18T10:34:24;18.13;;;13.50;;
10260;SDS011;5175;42.606;23.388;2022-12-18T10:36:50;18.43;;;13.93;;
10260;SDS011;5175;42.606;23.388;2022-12-18T10:39:18;20.70;;;14.17;;
10260;SDS011;5175;42.606;23.388;2022-12-18T10:41:47;18.23;;;14.73;;
10260;SDS011;5175;42.606;23.388;2022-12-18T10:44:16;19.47;;;14.03;;
10260;SDS011;5175;42.606;23.388;2022-12-18T10:46:45;18.40;;;14.83;;
10260;SDS011;5175;42.606;23.388;2022-12-18T10:49:19;19.90;;;14.67;;
10260;SDS011;5175;42.606;23.388;2022-12-18T10:51:50;19.53;;;14.47;;
10260;SDS011;5175;42.606;23.388;2022-12-18T10:54:20;18.77;;;14.20;;
10260;SDS011;5175;42.606;23.388;2022-12-18T10:56:48;17.73;;;14.23;;
10260;SDS011;5175;42.606;23.388;2022-12-18T10:59:16;19.40;;;13.87;;
10260;SDS011;5175;42.606;23.388;2022-12-18T11:01:48;18.57;;;14.53;;
10260;SDS011;5175;42.606;23.388;2022-12-18T11:04:17;18.60;;;14.33;;
10260;SDS011;5175;42.606;23.388;2022-12-18T11:06:56;19.63;;;12.10;;
10260;SDS011;5175;42.606;23.388;2022-12-18T11:09:26;17.83;;;12.43;;
10260;SDS011;5175;42.606;23.388;2022-12-18T11:11:55;16.50;;;12.27;;
10260;SDS011;5175;42.606;23.388;2022-12-18T11:14:24;14.60;;;11.40;;
10260;SDS011;5175;42.606;23.388;2022-12-18T11:16:53;16.17;;;12.53;;
10260;SDS011;5175;42.606;23.388;2022-12-18T11:19:26;16.43;;;12.00;;
10260;SDS011;5175;42.606;23.388;2022-12-18T11:21:58;16.07;;;12.07;;
10260;SDS011;5175;42.606;23.388;2022-12-18T11:24:29;15.67;;;11.47;;
10260;SDS011;5175;42.606;23.388;2022-12-18T11:26:59;12.67;;;8.60;;
10260;SDS011;5175;42.606;23.388;2022-12-18T11:29:32;14.90;;;8.83;;
10260;SDS011;5175;42.606;23.388;2022-12-18T11:32:20;14.83;;;10.17;;
10260;SDS011;5175;42.606;23.388;2022-12-18T11:35:10;16.67;;;11.67;;
10260;SDS011;5175;42.606;23.388;2022-12-18T11:37:44;15.53;;;12.27;;
10260;SDS011;5175;42.606;23.388;2022-12-18T11:40:18;16.90;;;12.10;;
10260;SDS011;5175;42.606;23.388;2022-12-18T11:43:01;17.50;;;12.20;;
10260;SDS011;5175;42.606;23.388;2022-12-18T11:45:34;14.87;;;10.90;;
10260;SDS011;5175;42.606;23.388;2022-12-18T11:48:08;14.60;;;11.40;;
10260;SDS011;5175;42.606;23.388;2022-12-18T11:50:46;14.60;;;11.10;;
10260;SDS011;5175;42.606;23.388;2022-12-18T11:53:15;15.30;;;10.93;;
10260;SDS011;5175;42.606;23.388;2022-12-18T11:55:46;14.20;;;10.70;;
10260;SDS011;5175;42.606;23.388;2022-12-18T11:58:19;16.93;;;11.07;;
10260;SDS011;5175;42.606;23.388;2022-12-18T12:01:00;14.67;;;10.60;;
10260;SDS011;5175;42.606;23.388;2022-12-18T12:03:45;14.53;;;10.53;;
10260;SDS011;5175;42.606;23.388;2022-12-18T12:06:20;11.33;;;9.13;;
10260;SDS011;5175;42.606;23.388;2022-12-18T12:08:56;11.90;;;8.23;;
10260;SDS011;5175;42.606;23.388;2022-12-18T12:11:35;14.87;;;10.80;;
10260;SDS011;5175;42.606;23.388;2022-12-18T12:14:17;13.30;;;9.77;;
10260;SDS011;5175;42.606;23.388;2022-12-18T12:17:03;15.70;;;11.23;;
10260;SDS011;5175;42.606;23.388;2022-12-18T12:19:37;11.87;;;8.20;;
10260;SDS011;5175;42.606;23.388;2022-12-18T12:22:14;14.77;;;11.23;;
10260;SDS011;5175;42.606;23.388;2022-12-18T12:24:52;13.60;;;10.47;;
10260;SDS011;5175;42.606;23.388;2022-12-18T12:27:31;14.87;;;11.43;;
10260;SDS011;5175;42.606;23.388;2022-12-18T12:30:08;15.73;;;10.80;;
10260;SDS011;5175;42.606;23.388;2022-12-18T12:32:50;14.87;;;9.87;;
10260;SDS011;5175;42.606;23.388;2022-12-18T12:35:32;15.50;;;11.40;;
10260;SDS011;5175;42.606;23.388;2022-12-18T12:38:10;13.37;;;8.83;;
10260;SDS011;5175;42.606;23.388;2022-12-18T12:40:42;15.80;;;11.90;;
10260;SDS011;5175;42.606;23.388;2022-12-18T12:43:19;18.13;;;11.70;;
10260;SDS011;5175;42.606;23.388;2022-12-18T12:45:53;16.60;;;11.20;;
10260;SDS011;5175;42.606;23.388;2022-12-18T12:48:31;15.93;;;11.30;;
10260;SDS011;5175;42.606;23.388;2022-12-18T12:51:03;16.80;;;11.87;;
10260;SDS011;5175;42.606;23.388;2022-12-18T12:53:37;17.17;;;12.20;;
10260;SDS011;5175;42.606;23.388;2022-12-18T12:56:06;20.37;;;13.23;;
10260;SDS011;5175;42.606;23.388;2022-12-18T12:58:38;17.07;;;12.80;;
10260;SDS011;5175;42.606;23.388;2022-12-18T13:01:17;16.47;;;12.20;;
10260;SDS011;5175;42.606;23.388;2022-12-18T13:03:56;17.90;;;13.23;;
10260;SDS011;5175;42.606;23.388;2022-12-18T13:06:34;17.13;;;12.23;;
10260;SDS011;5175;42.606;23.388;2022-12-18T13:09:09;17.80;;;12.83;;
10260;SDS011;5175;42.606;23.388;2022-12-18T13:11:36;17.50;;;12.00;;
10260;SDS011;5175;42.606;23.388;2022-12-18T13:14:32;16.77;;;12.70;;
10260;SDS011;5175;42.606;23.388;2022-12-18T13:17:17;17.70;;;12.60;;
10260;SDS011;5175;42.606;23.388;2022-12-18T13:20:03;18.37;;;12.13;;
10260;SDS011;5175;42.606;23.388;2022-12-18T13:22:34;20.00;;;13.57;;
10260;SDS011;5175;42.606;23.388;2022-12-18T13:25:02;19.40;;;13.50;;
10260;SDS011;5175;42.606;23.388;2022-12-18T13:28:03;18.43;;;13.10;;
10260;SDS011;5175;42.606;23.388;2022-12-18T13:30:42;17.80;;;13.10;;
10260;SDS011;5175;42.606;23.388;2022-12-18T13:33:34;17.23;;;12.60;;
10260;SDS011;5175;42.606;23.388;2022-12-18T13:36:09;20.53;;;13.37;;
10260;SDS011;5175;42.606;23.388;2022-12-18T13:41:47;21.03;;;15.33;;
10260;SDS011;5175;42.606;23.388;2022-12-18T13:44:22;18.50;;;14.67;;
10260;SDS011;5175;42.606;23.388;2022-12-18T13:46:53;19.30;;;14.50;;
10260;SDS011;5175;42.606;23.388;2022-12-18T13:49:21;18.37;;;12.03;;
10260;SDS011;5175;42.606;23.388;2022-12-18T13:51:51;20.17;;;13.80;;
10260;SDS011;5175;42.606;23.388;2022-12-18T13:54:30;18.70;;;13.23;;
10260;SDS011;5175;42.606;23.388;2022-12-18T13:57:01;18.90;;;15.13;;
10260;SDS011;5175;42.606;23.388;2022-12-18T13:59:33;20.33;;;15.57;;
10260;SDS011;5175;42.606;23.388;2022-12-18T14:02:07;21.30;;;15.70;;
10260;SDS011;5175;42.606;23.388;2022-12-18T14:04:39;20.00;;;14.70;;
10260;SDS011;5175;42.606;23.388;2022-12-18T14:07:07;18.33;;;14.80;;
10260;SDS011;5175;42.606;23.388;2022-12-18T14:09:39;19.90;;;13.87;;
10260;SDS011;5175;42.606;23.388;2022-12-18T14:12:14;20.90;;;15.63;;
10260;SDS011;5175;42.606;23.388;2022-12-18T14:15:00;19.20;;;15.33;;
10260;SDS011;5175;42.606;23.388;2022-12-18T14:17:30;20.83;;;14.67;;
10260;SDS011;5175;42.606;23.388;2022-12-18T14:19:57;19.13;;;14.40;;
10260;SDS011;5175;42.606;23.388;2022-12-18T14:22:24;18.90;;;14.40;;
10260;SDS011;5175;42.606;23.388;2022-12-18T14:25:14;18.40;;;13.80;;
10260;SDS011;5175;42.606;23.388;2022-12-18T14:27:44;18.83;;;13.67;;
10260;SDS011;5175;42.606;23.388;2022-12-18T14:33:04;17.40;;;11.87;;
10260;SDS011;5175;42.606;23.388;2022-12-18T14:35:32;16.20;;;11.27;;
10260;SDS011;5175;42.606;23.388;2022-12-18T14:38:18;19.63;;;15.17;;
10260;SDS011;5175;42.606;23.388;2022-12-18T14:40:51;22.03;;;13.77;;
10260;SDS011;5175;42.606;23.388;2022-12-18T14:43:19;18.93;;;13.37;;
10260;SDS011;5175;42.606;23.388;2022-12-18T14:45:46;18.50;;;14.50;;
10260;SDS011;5175;42.606;23.388;2022-12-18T14:48:16;18.20;;;13.53;;
10260;SDS011;5175;42.606;23.388;2022-12-18T14:50:45;17.37;;;13.77;;
10260;SDS011;5175;42.606;23.388;2022-12-18T14:53:22;19.03;;;14.50;;
10260;SDS011;5175;42.606;23.388;2022-12-18T14:55:59;18.30;;;13.17;;
10260;SDS011;5175;42.606;23.388;2022-12-18T14:58:27;18.07;;;13.17;;